Time;durP1;ratioP1;P1;durP2;ratioP2;P2;SDS_P1;SDS_P2;PMS_P1;PMS_P2;Temp;Humidity;BMP_temperature;BMP_pressure;BME280_temperature;BME280_humidity;BME280_pressure;Samples;Min_cycle;Max_cycle;Signal;HPM_P1;HPM_P2
2023/10/23 00:01:38;;;;;;;7.60;3.38;;;7.80;99.90;;;;;;4973053;28;20060;-77
2023/10/23 00:04:04;;;;;;;8.55;4.00;;;7.80;99.90;;;;;;4996198;28;20092;-77
2023/10/23 00:06:30;;;;;;;6.00;3.42;;;7.80;99.90;;;;;;4998842;28;20083;-77
2023/10/23 00:08:56;;;;;;;6.30;3.50;;;7.80;99.90;;;;;;4972194;28;20045;-77
2023/10/23 00:11:26;;;;;;;7.65;3.35;;;7.80;99.90;;;;;;4972299;28;20046;-77
2023/10/23 00:13:52;;;;;;;5.80;3.33;;;7.80;99.90;;;;;;4972914;28;20050;-77
2023/10/23 00:16:19;;;;;;;8.23;3.20;;;7.80;99.90;;;;;;4973361;28;20075;-77
2023/10/23 00:18:45;;;;;;;7.72;3.28;;;7.70;99.90;;;;;;4992492;28;20614;-77
2023/10/23 00:21:11;;;;;;;7.43;3.53;;;7.70;99.90;;;;;;4982481;28;20665;-77
2023/10/23 00:23:36;;;;;;;7.45;3.22;;;7.70;99.90;;;;;;5005913;28;20053;-77
2023/10/23 00:26:02;;;;;;;9.05;3.30;;;7.70;99.90;;;;;;4981016;28;20504;-77
2023/10/23 00:28:28;;;;;;;7.35;3.20;;;7.70;99.90;;;;;;4989168;28;20080;-76
2023/10/23 00:30:54;;;;;;;8.40;3.00;;;7.70;99.90;;;;;;4992894;28;20072;-77
2023/10/23 00:33:20;;;;;;;7.45;3.30;;;7.60;99.90;;;;;;4977892;28;20088;-77
2023/10/23 00:35:46;;;;;;;7.18;3.22;;;7.60;99.90;;;;;;4990549;28;20585;-77
2023/10/23 00:38:12;;;;;;;7.95;3.30;;;7.60;99.90;;;;;;4969767;28;20082;-77
2023/10/23 00:40:37;;;;;;;6.30;3.35;;;7.60;99.90;;;;;;4968778;28;20033;-77
2023/10/23 00:43:24;;;;;;;9.43;3.90;;;7.60;99.90;;;;;;4994920;28;20129;-76
2023/10/23 00:46:00;;;;;;;8.07;3.78;;;7.60;99.90;;;;;;4993314;28;20551;-77
2023/10/23 00:48:27;;;;;;;8.05;4.07;;;7.60;99.90;;;;;;4989402;28;20048;-77
2023/10/23 00:50:58;;;;;;;7.00;3.50;;;7.60;99.90;;;;;;4969736;28;20050;-77
2023/10/23 00:53:27;;;;;;;6.85;3.50;;;7.60;99.90;;;;;;4969544;28;20111;-77
2023/10/23 00:55:54;;;;;;;5.50;2.92;;;7.60;99.90;;;;;;4987884;28;20054;-77
2023/10/23 00:58:25;;;;;;;6.72;3.28;;;7.50;99.90;;;;;;4969939;28;20096;-77
2023/10/23 01:00:53;;;;;;;7.10;3.57;;;7.50;99.90;;;;;;4989739;28;20060;-77
2023/10/23 01:03:19;;;;;;;6.20;3.55;;;7.50;99.90;;;;;;4966555;28;20068;-77
2023/10/23 01:05:45;;;;;;;10.25;3.63;;;7.50;99.90;;;;;;4990476;28;20049;-76
2023/10/23 01:08:11;;;;;;;7.57;4.13;;;7.50;99.90;;;;;;4967269;28;20249;-77
2023/10/23 01:10:37;;;;;;;8.43;3.90;;;7.50;99.90;;;;;;4985355;28;20054;-77
2023/10/23 01:13:09;;;;;;;7.88;3.78;;;7.90;99.90;;;;;;4989491;28;20057;-77
2023/10/23 01:15:35;;;;;;;9.90;4.38;;;7.50;99.90;;;;;;4991737;28;20565;-77
2023/10/23 01:18:02;;;;;;;8.60;3.92;;;7.50;99.90;;;;;;4985995;28;20073;-77
2023/10/23 01:20:29;;;;;;;8.63;3.83;;;7.50;99.90;;;;;;4983281;28;20129;-77
2023/10/23 01:23:00;;;;;;;6.57;4.05;;;8.20;99.90;;;;;;4983899;28;20088;-78
2023/10/23 01:25:26;;;;;;;7.07;4.00;;;7.40;99.90;;;;;;4990540;28;20069;-77
2023/10/23 01:27:53;;;;;;;7.35;3.35;;;7.40;99.90;;;;;;4971669;28;20506;-77
2023/10/23 01:30:19;;;;;;;6.53;3.55;;;7.40;99.90;;;;;;4972269;28;20052;-76
2023/10/23 01:32:45;;;;;;;8.00;3.75;;;7.40;99.90;;;;;;4971920;28;20473;-78
2023/10/23 01:35:11;;;;;;;7.10;3.47;;;7.40;99.90;;;;;;4985507;28;20068;-77
2023/10/23 01:37:37;;;;;;;6.93;3.50;;;7.30;99.90;;;;;;4992555;28;20061;-77
2023/10/23 01:40:04;;;;;;;6.97;3.55;;;7.30;99.90;;;;;;4993208;28;20402;-77
2023/10/23 01:42:31;;;;;;;8.57;3.97;;;7.30;99.90;;;;;;4987100;28;20081;-77
2023/10/23 01:44:57;;;;;;;8.90;3.72;;;7.30;99.90;;;;;;4963551;28;20151;-77
2023/10/23 01:47:25;;;;;;;8.30;3.55;;;7.30;99.90;;;;;;4986489;28;20442;-77
2023/10/23 01:49:51;;;;;;;7.85;3.97;;;7.20;99.90;;;;;;4998093;28;20056;-77
2023/10/23 01:52:17;;;;;;;8.77;4.38;;;7.30;99.90;;;;;;4985441;28;20050;-77
2023/10/23 01:54:43;;;;;;;9.05;3.80;;;7.20;99.90;;;;;;5002111;28;20046;-77
2023/10/23 01:57:10;;;;;;;6.05;3.33;;;7.30;99.90;;;;;;4990218;28;20386;-78
2023/10/23 01:59:36;;;;;;;8.63;3.65;;;7.20;99.90;;;;;;4988523;28;20053;-77
2023/10/23 02:02:02;;;;;;;8.77;4.30;;;7.70;99.90;;;;;;4982202;28;20176;-77
2023/10/23 02:04:28;;;;;;;8.48;3.95;;;7.20;99.90;;;;;;4983246;28;20136;-77
2023/10/23 02:06:54;;;;;;;7.32;4.05;;;7.20;99.90;;;;;;4981975;28;20057;-77
2023/10/23 02:09:21;;;;;;;9.02;5.07;;;7.10;99.90;;;;;;4983562;28;20049;-77
2023/10/23 02:11:46;;;;;;;8.88;4.32;;;7.10;99.90;;;;;;4970810;28;20533;-78
2023/10/23 02:14:12;;;;;;;7.05;3.83;;;7.10;99.90;;;;;;4970065;28;20041;-78
2023/10/23 02:16:38;;;;;;;9.93;4.47;;;7.20;99.90;;;;;;5001317;28;20637;-77
2023/10/23 02:19:04;;;;;;;10.93;5.03;;;7.10;99.90;;;;;;4985029;28;20049;-78
2023/10/23 02:21:30;;;;;;;10.38;4.82;;;7.10;99.90;;;;;;5004790;28;20051;-77
2023/10/23 02:23:55;;;;;;;7.60;4.68;;;7.10;99.90;;;;;;4991034;28;20462;-77
2023/10/23 02:26:21;;;;;;;9.40;4.68;;;7.10;99.90;;;;;;4987238;28;20084;-77
2023/10/23 02:28:47;;;;;;;8.20;4.28;;;7.40;99.90;;;;;;4982153;28;20061;-77
2023/10/23 02:31:13;;;;;;;7.63;4.70;;;7.10;99.90;;;;;;4983839;28;20198;-78
2023/10/23 02:33:39;;;;;;;7.32;4.45;;;7.10;99.90;;;;;;4984929;28;20119;-77
2023/10/23 02:36:05;;;;;;;7.70;3.97;;;7.10;99.90;;;;;;4971772;28;20050;-78
2023/10/23 02:38:31;;;;;;;9.07;4.65;;;7.00;99.90;;;;;;5007390;28;20061;-77
2023/10/23 02:40:57;;;;;;;7.38;4.22;;;7.30;99.90;;;;;;4970605;28;20038;-76
2023/10/23 02:43:22;;;;;;;10.38;4.85;;;7.00;99.90;;;;;;4985764;28;20431;-76
2023/10/23 02:45:48;;;;;;;8.25;4.50;;;7.00;99.90;;;;;;4992440;28;20034;-77
2023/10/23 02:48:16;;;;;;;10.98;5.20;;;7.00;99.90;;;;;;4972175;28;20128;-77
2023/10/23 02:50:52;;;;;;;11.52;5.22;;;7.00;99.90;;;;;;4986936;28;20506;-77
2023/10/23 02:53:18;;;;;;;8.70;5.38;;;7.00;99.90;;;;;;4971098;28;20052;-77
2023/10/23 02:55:44;;;;;;;9.25;5.00;;;7.00;99.90;;;;;;4994173;28;20038;-77
2023/10/23 02:58:09;;;;;;;10.30;5.15;;;6.90;99.90;;;;;;4985773;28;20042;-77
2023/10/23 03:00:35;;;;;;;8.70;4.57;;;7.00;99.90;;;;;;4969647;28;20057;-77
2023/10/23 03:03:01;;;;;;;8.60;5.07;;;7.30;99.90;;;;;;4970101;28;20089;-77
2023/10/23 03:05:26;;;;;;;7.35;4.82;;;6.90;99.90;;;;;;4985553;28;20077;-77
2023/10/23 03:07:52;;;;;;;9.85;4.70;;;6.90;99.90;;;;;;4969781;28;20049;-77
2023/10/23 03:10:19;;;;;;;9.60;4.70;;;6.90;99.90;;;;;;4987657;28;20417;-78
2023/10/23 03:12:44;;;;;;;10.18;5.20;;;6.90;99.90;;;;;;4988475;28;20045;-77
2023/10/23 03:15:10;;;;;;;9.25;4.60;;;6.90;99.90;;;;;;4983625;28;20822;-77
2023/10/23 03:17:36;;;;;;;8.98;4.80;;;6.90;99.90;;;;;;4988418;28;20149;-77
2023/10/23 03:20:03;;;;;;;11.15;5.65;;;6.90;99.90;;;;;;4974606;28;20498;-77
2023/10/23 03:22:28;;;;;;;10.02;6.07;;;6.90;99.90;;;;;;4991718;28;20119;-77
2023/10/23 03:24:54;;;;;;;9.82;5.50;;;6.80;99.90;;;;;;4986864;28;20042;-77
2023/10/23 03:27:23;;;;;;;11.27;5.22;;;6.80;99.90;;;;;;4970751;28;20471;-78
2023/10/23 03:29:49;;;;;;;9.18;5.47;;;6.80;99.90;;;;;;4991827;28;20045;-76
2023/10/23 03:32:14;;;;;;;9.45;5.10;;;6.80;99.90;;;;;;4990459;28;20097;-77
2023/10/23 03:34:40;;;;;;;11.10;5.60;;;6.70;99.90;;;;;;4976400;28;20112;-77
2023/10/23 03:37:06;;;;;;;12.23;5.35;;;6.80;99.90;;;;;;4989809;28;20051;-76
2023/10/23 03:39:31;;;;;;;11.95;6.20;;;6.80;99.90;;;;;;4974583;28;20073;-77
2023/10/23 03:41:57;;;;;;;11.10;5.53;;;6.80;99.90;;;;;;4993175;28;20042;-78
2023/10/23 03:44:23;;;;;;;11.73;5.20;;;6.70;99.90;;;;;;4975336;28;20144;-77
2023/10/23 03:46:48;;;;;;;8.32;5.70;;;6.70;99.90;;;;;;4989243;28;20070;-76
2023/10/23 03:49:14;;;;;;;8.18;5.45;;;6.70;99.90;;;;;;4995610;28;21349;-77
2023/10/23 03:51:40;;;;;;;9.38;5.60;;;6.70;99.90;;;;;;4971963;28;20502;-76
2023/10/23 03:54:05;;;;;;;9.30;5.47;;;6.70;99.90;;;;;;4987198;28;20486;-76
2023/10/23 03:56:31;;;;;;;8.45;5.40;;;6.70;99.90;;;;;;4993088;28;20506;-76
2023/10/23 03:58:57;;;;;;;11.00;5.78;;;6.70;99.90;;;;;;4976839;28;20451;-77
2023/10/23 04:01:23;;;;;;;11.32;5.90;;;6.90;99.90;;;;;;4992561;28;20136;-78
2023/10/23 04:03:48;;;;;;;10.07;6.00;;;6.90;99.90;;;;;;4995108;28;20418;-78
2023/10/23 04:06:14;;;;;;;11.20;5.53;;;6.70;99.90;;;;;;4980194;28;20049;-77
2023/10/23 04:08:40;;;;;;;9.75;6.00;;;6.60;99.90;;;;;;4987861;28;20050;-77
2023/10/23 04:11:06;;;;;;;10.55;5.85;;;6.60;99.90;;;;;;4974035;28;20130;-78
2023/10/23 04:13:34;;;;;;;14.05;6.07;;;6.60;99.90;;;;;;4975294;28;20164;-77
2023/10/23 04:16:02;;;;;;;9.57;5.65;;;6.60;99.90;;;;;;4978406;28;20105;-76
2023/10/23 04:18:28;;;;;;;11.88;5.82;;;6.60;99.90;;;;;;4979517;28;20053;-77
2023/10/23 04:21:07;;;;;;;10.90;6.00;;;6.60;99.90;;;;;;4987314;28;20053;-77
2023/10/23 04:23:36;;;;;;;12.65;6.25;;;6.50;99.90;;;;;;4988699;28;20058;-77
2023/10/23 04:26:02;;;;;;;12.18;6.68;;;6.50;99.90;;;;;;4992901;28;20053;-77
2023/10/23 04:28:28;;;;;;;12.10;5.47;;;6.70;99.90;;;;;;4971986;28;20135;-78
2023/10/23 04:30:55;;;;;;;10.27;6.13;;;6.50;99.90;;;;;;4972938;28;20546;-77
2023/10/23 04:33:22;;;;;;;9.05;5.72;;;6.50;99.90;;;;;;4978129;28;20166;-77
2023/10/23 04:35:56;;;;;;;10.43;5.90;;;6.50;99.90;;;;;;4991251;28;20044;-77
2023/10/23 04:38:23;;;;;;;12.10;6.10;;;6.50;99.90;;;;;;4987919;28;20050;-77
2023/10/23 04:40:50;;;;;;;8.93;5.85;;;6.50;99.90;;;;;;4980038;28;20057;-77
2023/10/23 04:43:16;;;;;;;13.25;5.72;;;6.50;99.90;;;;;;4973582;28;20107;-76
2023/10/23 04:45:42;;;;;;;8.77;5.72;;;6.50;99.90;;;;;;4972801;28;20081;-78
2023/10/23 04:48:09;;;;;;;9.60;6.00;;;6.50;99.90;;;;;;4993169;28;20038;-77
2023/10/23 04:50:37;;;;;;;9.57;5.40;;;6.40;99.90;;;;;;4992175;28;20076;-77
2023/10/23 04:53:03;;;;;;;9.93;5.97;;;6.50;99.90;;;;;;4989361;28;20494;-77
2023/10/23 04:55:38;;;;;;;13.23;6.05;;;6.40;99.90;;;;;;4991389;28;20430;-78
2023/10/23 04:58:04;;;;;;;10.25;5.60;;;6.40;99.90;;;;;;4974504;28;20058;-78
2023/10/23 05:00:33;;;;;;;9.20;5.63;;;6.40;99.90;;;;;;4989340;28;20449;-77
2023/10/23 05:02:59;;;;;;;10.88;5.35;;;6.40;99.90;;;;;;4974029;28;20577;-77
2023/10/23 05:05:24;;;;;;;9.80;5.07;;;6.30;99.90;;;;;;4975164;28;20050;-78
2023/10/23 05:07:53;;;;;;;9.27;5.57;;;6.30;99.90;;;;;;4993440;28;20042;-78
2023/10/23 05:10:18;;;;;;;10.02;5.70;;;6.30;99.90;;;;;;4975061;28;20454;-77
2023/10/23 05:12:46;;;;;;;10.98;6.03;;;6.30;99.90;;;;;;4990638;28;20160;-78
2023/10/23 05:15:12;;;;;;;8.75;5.60;;;6.20;99.90;;;;;;4990999;28;20038;-77
2023/10/23 05:17:38;;;;;;;10.02;5.30;;;6.20;99.90;;;;;;4990326;28;20045;-77
2023/10/23 05:20:04;;;;;;;8.52;5.68;;;6.20;99.90;;;;;;4974353;28;20049;-78
2023/10/23 05:22:30;;;;;;;11.77;6.15;;;6.20;99.90;;;;;;4985297;28;20140;-78
2023/10/23 05:24:55;;;;;;;9.70;5.70;;;6.20;99.90;;;;;;4970140;28;20046;-78
2023/10/23 05:27:21;;;;;;;10.77;5.95;;;6.20;99.90;;;;;;4989758;28;20053;-78
2023/10/23 05:29:47;;;;;;;9.05;5.53;;;6.10;99.90;;;;;;4990078;28;20045;-78
2023/10/23 05:32:12;;;;;;;10.25;5.40;;;6.10;99.90;;;;;;5003621;28;20550;-77
2023/10/23 05:34:38;;;;;;;14.00;6.25;;;6.10;99.90;;;;;;4995723;28;20510;-78
2023/10/23 05:37:04;;;;;;;8.52;5.10;;;6.10;99.90;;;;;;4986397;28;20050;-77
2023/10/23 05:39:30;;;;;;;10.07;6.07;;;6.00;99.90;;;;;;4987796;28;20048;-77
2023/10/23 05:41:56;;;;;;;10.60;6.97;;;6.00;99.90;;;;;;4979650;28;20046;-78
2023/10/23 05:44:21;;;;;;;9.90;6.38;;;6.00;99.90;;;;;;4971788;28;20045;-78
2023/10/23 05:46:47;;;;;;;11.02;6.10;;;6.00;99.90;;;;;;4991529;28;20046;-78
2023/10/23 05:49:13;;;;;;;8.88;6.10;;;5.90;99.90;;;;;;4991422;28;20427;-77
2023/10/23 05:51:39;;;;;;;14.00;6.80;;;6.00;99.90;;;;;;4973434;28;20478;-77
2023/10/23 05:54:04;;;;;;;14.15;6.88;;;6.00;99.90;;;;;;4986079;28;20505;-77
2023/10/23 05:56:30;;;;;;;11.82;6.78;;;6.00;99.90;;;;;;4971652;28;20376;-77
2023/10/23 05:58:56;;;;;;;13.68;7.28;;;5.90;99.90;;;;;;4989545;28;20049;-78
2023/10/23 06:01:21;;;;;;;10.60;6.93;;;5.90;99.90;;;;;;4972036;28;20096;-77
2023/10/23 06:03:47;;;;;;;10.80;6.13;;;5.90;99.90;;;;;;4990165;28;20100;-78
2023/10/23 06:06:13;;;;;;;12.02;6.80;;;5.90;99.90;;;;;;4992638;28;20553;-78
2023/10/23 06:08:39;;;;;;;11.55;7.20;;;6.00;99.90;;;;;;4965314;28;20384;-78
2023/10/23 06:11:10;;;;;;;11.82;6.53;;;5.90;99.90;;;;;;4961940;28;20052;-77
2023/10/23 06:13:36;;;;;;;11.80;5.63;;;6.00;99.90;;;;;;4967818;28;20053;-78
2023/10/23 06:16:04;;;;;;;10.20;6.65;;;5.90;99.90;;;;;;4966460;28;20053;-78
2023/10/23 06:18:36;;;;;;;13.40;6.65;;;5.90;99.90;;;;;;4966916;28;20509;-78
2023/10/23 06:21:05;;;;;;;11.52;6.55;;;5.80;99.90;;;;;;4967640;28;20487;-78
2023/10/23 06:23:39;;;;;;;10.98;6.15;;;5.80;99.90;;;;;;4987052;28;20176;-77
2023/10/23 06:26:06;;;;;;;13.20;7.05;;;5.80;99.90;;;;;;4981293;28;20053;-78
2023/10/23 06:28:33;;;;;;;12.55;7.10;;;5.80;99.90;;;;;;4971754;28;20176;-77
2023/10/23 06:31:09;;;;;;;11.65;6.32;;;5.80;99.90;;;;;;4966441;28;20046;-77
2023/10/23 06:33:36;;;;;;;9.32;6.13;;;5.80;99.90;;;;;;4981719;28;20798;-78
2023/10/23 06:36:09;;;;;;;10.10;6.10;;;6.50;99.90;;;;;;4980665;28;20050;-78
2023/10/23 06:38:35;;;;;;;11.20;5.80;;;5.70;99.90;;;;;;4967499;28;20045;-78
2023/10/23 06:41:05;;;;;;;10.18;6.13;;;5.70;99.90;;;;;;4970181;28;20050;-77
2023/10/23 06:43:38;;;;;;;9.15;6.13;;;6.00;99.90;;;;;;4961887;28;20045;-78
2023/10/23 06:46:04;;;;;;;8.65;5.97;;;5.70;99.90;;;;;;4976815;28;20050;-78
2023/10/23 06:48:33;;;;;;;14.77;6.22;;;5.70;99.90;;;;;;4975605;28;20054;-79
2023/10/23 06:50:59;;;;;;;10.05;6.22;;;5.60;99.90;;;;;;4973581;28;20089;-78
2023/10/23 06:53:25;;;;;;;9.00;5.68;;;5.60;99.90;;;;;;4973540;28;20616;-77
2023/10/23 06:55:55;;;;;;;9.93;5.70;;;6.50;99.90;;;;;;4973394;28;20069;-78
2023/10/23 06:58:23;;;;;;;9.43;5.95;;;5.70;99.90;;;;;;4965901;28;20045;-78
2023/10/23 07:00:49;;;;;;;13.88;6.40;;;5.70;99.90;;;;;;4963841;28;20045;-78
2023/10/23 07:03:15;;;;;;;12.63;6.97;;;5.70;99.90;;;;;;4978974;28;21347;-77
2023/10/23 07:05:41;;;;;;;8.95;6.60;;;5.70;99.90;;;;;;4968749;28;20069;-77
2023/10/23 07:08:07;;;;;;;13.00;7.47;;;5.80;99.90;;;;;;4983845;28;20119;-78
2023/10/23 07:10:34;;;;;;;13.45;6.53;;;5.70;99.90;;;;;;4981641;28;20060;-78
2023/10/23 07:13:00;;;;;;;13.05;6.35;;;5.70;99.90;;;;;;4978026;28;20042;-78
2023/10/23 07:15:26;;;;;;;10.90;6.78;;;6.00;99.90;;;;;;4978021;28;20372;-78
2023/10/23 07:17:52;;;;;;;10.77;7.00;;;5.80;99.90;;;;;;4971517;28;20089;-79
2023/10/23 07:20:18;;;;;;;10.25;6.47;;;5.80;99.90;;;;;;4989707;28;20799;-77
2023/10/23 07:22:44;;;;;;;11.40;6.60;;;5.80;99.90;;;;;;4969685;28;20057;-78
2023/10/23 07:25:10;;;;;;;11.10;7.00;;;5.90;99.90;;;;;;4952091;28;20068;-77
2023/10/23 07:27:37;;;;;;;11.35;6.50;;;6.70;99.90;;;;;;4978542;28;20050;-78
2023/10/23 07:30:04;;;;;;;11.82;7.10;;;6.00;99.90;;;;;;4963604;28;20046;-78
2023/10/23 07:32:29;;;;;;;10.55;6.15;;;6.00;99.90;;;;;;4974367;28;20104;-78
2023/10/23 07:34:55;;;;;;;9.50;6.22;;;6.10;99.90;;;;;;4963581;28;20691;-78
2023/10/23 07:37:22;;;;;;;13.60;7.18;;;6.20;99.90;;;;;;4972586;28;20102;-78
2023/10/23 07:39:48;;;;;;;12.15;6.55;;;6.30;99.90;;;;;;4969151;28;20050;-78
2023/10/23 07:42:17;;;;;;;11.70;6.93;;;6.30;99.90;;;;;;4987085;28;20844;-78
2023/10/23 07:44:43;;;;;;;12.55;8.23;;;6.30;99.90;;;;;;4973832;28;20045;-79
2023/10/23 07:47:09;;;;;;;11.15;7.70;;;6.40;99.90;;;;;;4978754;28;20053;-77
2023/10/23 07:49:35;;;;;;;12.32;7.30;;;6.60;99.90;;;;;;4972227;28;20046;-77
2023/10/23 07:52:00;;;;;;;14.10;7.53;;;7.10;99.90;;;;;;4968988;28;20510;-76
2023/10/23 07:54:26;;;;;;;11.02;7.82;;;6.70;99.90;;;;;;4956755;28;20053;-78
2023/10/23 07:56:55;;;;;;;13.48;7.35;;;6.90;99.90;;;;;;4969284;28;20104;-77
2023/10/23 07:59:23;;;;;;;9.88;7.07;;;7.00;99.90;;;;;;4973555;28;20136;-77
2023/10/23 08:01:49;;;;;;;12.85;7.95;;;7.10;99.90;;;;;;4969813;28;20587;-77
2023/10/23 08:04:16;;;;;;;12.05;7.75;;;7.20;99.90;;;;;;4978011;28;20054;-78
2023/10/23 08:06:42;;;;;;;14.07;7.65;;;7.40;99.90;;;;;;4973594;28;20096;-77
2023/10/23 08:09:08;;;;;;;11.80;6.97;;;7.40;99.90;;;;;;4973681;28;20414;-78
2023/10/23 08:11:33;;;;;;;10.77;6.80;;;7.50;99.90;;;;;;4952983;28;20903;-77
2023/10/23 08:14:00;;;;;;;10.73;6.50;;;7.60;99.90;;;;;;4969200;28;20119;-77
2023/10/23 08:16:25;;;;;;;16.38;7.00;;;7.70;99.90;;;;;;4965880;28;20414;-78
2023/10/23 08:18:55;;;;;;;9.10;6.03;;;7.80;99.90;;;;;;4962634;28;20053;-77
2023/10/23 08:21:26;;;;;;;11.25;7.65;;;7.90;99.90;;;;;;4976148;28;20045;-77
2023/10/23 08:23:56;;;;;;;12.93;6.82;;;8.00;99.90;;;;;;4957614;28;20438;-77
2023/10/23 08:26:23;;;;;;;11.48;6.63;;;8.10;99.90;;;;;;4972006;28;20096;-77
2023/10/23 08:28:49;;;;;;;9.43;6.18;;;7.70;99.90;;;;;;4963195;28;20056;-77
2023/10/23 08:31:16;;;;;;;9.73;6.18;;;8.20;99.90;;;;;;4975983;28;20060;-78
2023/10/23 08:33:42;;;;;;;11.57;6.55;;;8.30;99.90;;;;;;4974339;28;20049;-76
2023/10/23 08:36:09;;;;;;;14.35;6.30;;;8.30;99.90;;;;;;4963252;28;20406;-77
2023/10/23 08:38:35;;;;;;;12.63;6.68;;;8.40;99.90;;;;;;4968297;28;20045;-77
2023/10/23 08:41:03;;;;;;;9.75;6.38;;;8.50;99.90;;;;;;4964453;28;20567;-77
2023/10/23 08:43:30;;;;;;;12.80;7.70;;;8.60;99.90;;;;;;4967074;28;20042;-77
2023/10/23 08:46:02;;;;;;;12.05;6.78;;;8.70;99.90;;;;;;4972055;28;20046;-77
2023/10/23 08:48:28;;;;;;;11.50;6.55;;;8.70;99.90;;;;;;4957418;28;20081;-77
2023/10/23 08:50:58;;;;;;;11.38;6.30;;;8.90;99.90;;;;;;4954598;28;20112;-76
2023/10/23 08:53:38;;;;;;;11.90;6.80;;;8.90;99.90;;;;;;4951898;28;20463;-76
2023/10/23 08:56:05;;;;;;;11.20;6.32;;;9.00;99.90;;;;;;4955484;28;20561;-77
2023/10/23 08:58:36;;;;;;;10.05;6.70;;;9.10;99.90;;;;;;4961519;28;20639;-76
2023/10/23 09:01:03;;;;;;;12.68;7.03;;;9.20;99.90;;;;;;4954620;28;20141;-77
2023/10/23 09:03:31;;;;;;;10.52;6.80;;;9.30;99.90;;;;;;4968580;28;20100;-76
2023/10/23 09:05:58;;;;;;;11.73;6.60;;;9.40;99.90;;;;;;4951698;28;20100;-76
2023/10/23 09:08:27;;;;;;;11.40;6.47;;;9.40;99.90;;;;;;4969658;28;20064;-76
2023/10/23 09:11:01;;;;;;;11.18;6.50;;;9.40;99.90;;;;;;4980622;28;20152;-76
2023/10/23 09:13:38;;;;;;;13.80;6.88;;;9.50;99.90;;;;;;4958847;28;20046;-77
2023/10/23 09:16:09;;;;;;;13.50;6.53;;;9.60;99.90;;;;;;4979375;28;20781;-76
2023/10/23 09:18:51;;;;;;;9.93;5.78;;;9.70;99.90;;;;;;4973399;28;20050;-76
2023/10/23 09:21:17;;;;;;;10.55;5.63;;;9.70;99.90;;;;;;4968909;28;20096;-75
2023/10/23 09:23:54;;;;;;;10.95;6.07;;;9.70;99.90;;;;;;4974973;28;20053;-76
2023/10/23 09:26:24;;;;;;;8.57;5.05;;;9.80;99.90;;;;;;4962514;28;20480;-76
2023/10/23 09:28:52;;;;;;;9.93;5.13;;;9.90;99.90;;;;;;4974473;28;20033;-76
2023/10/23 09:31:21;;;;;;;10.52;5.22;;;9.90;99.90;;;;;;4976230;28;20049;-76
2023/10/23 09:33:51;;;;;;;9.07;5.28;;;10.00;99.90;;;;;;4977426;28;20567;-76
2023/10/23 09:36:17;;;;;;;10.38;5.57;;;10.00;99.90;;;;;;4973791;28;20761;-76
2023/10/23 09:38:54;;;;;;;9.02;5.15;;;10.10;99.90;;;;;;4972446;28;20072;-76
2023/10/23 09:41:21;;;;;;;10.80;4.85;;;10.10;99.90;;;;;;4953296;28;20046;-75
2023/10/23 09:43:47;;;;;;;10.25;5.18;;;10.10;99.90;;;;;;4957765;28;20232;-76
2023/10/23 09:46:14;;;;;;;9.73;4.75;;;10.20;99.90;;;;;;4974390;28;20096;-77
2023/10/23 09:48:44;;;;;;;9.45;4.93;;;10.30;99.90;;;;;;4962588;28;20129;-76
2023/10/23 09:51:15;;;;;;;7.32;4.45;;;10.40;99.90;;;;;;4974776;28;20370;-76
2023/10/23 09:54:00;;;;;;;7.43;3.63;;;10.40;99.90;;;;;;4963854;28;20124;-76
2023/10/23 09:56:30;;;;;;;9.73;4.15;;;10.50;99.90;;;;;;4980277;28;20068;-76
2023/10/23 09:59:03;;;;;;;8.80;5.63;;;10.60;99.90;;;;;;4978887;28;20057;-76
2023/10/23 10:01:39;;;;;;;8.48;5.15;;;10.60;99.90;;;;;;4977999;28;20615;-75
2023/10/23 10:04:15;;;;;;;13.77;5.78;;;10.70;99.90;;;;;;4963305;28;20056;-76
2023/10/23 10:06:53;;;;;;;8.60;5.40;;;10.70;99.90;;;;;;4978472;28;20065;-76
2023/10/23 10:09:21;;;;;;;8.55;5.07;;;10.80;99.90;;;;;;4972488;28;20257;-76
2023/10/23 10:11:48;;;;;;;10.98;5.05;;;11.10;99.90;;;;;;4957441;28;20065;-75
2023/10/23 10:14:16;;;;;;;10.20;4.97;;;10.90;99.90;;;;;;4974232;28;21274;-75
2023/10/23 10:16:46;;;;;;;9.85;5.07;;;10.90;99.90;;;;;;4968348;28;20050;-75
2023/10/23 10:19:12;;;;;;;8.48;4.53;;;11.00;99.90;;;;;;4977106;28;20049;-76
2023/10/23 10:21:50;;;;;;;9.50;4.63;;;11.20;99.90;;;;;;4976097;28;20049;-75
2023/10/23 10:24:18;;;;;;;9.02;5.22;;;11.10;99.90;;;;;;4960472;28;20133;-75
2023/10/23 10:26:44;;;;;;;9.30;4.70;;;11.10;99.90;;;;;;4961722;28;20076;-75
2023/10/23 10:29:10;;;;;;;7.07;4.22;;;11.20;99.90;;;;;;4975650;28;20762;-75
2023/10/23 10:32:05;;;;;;;13.13;4.75;;;11.30;99.90;;;;;;4950757;28;20058;-75
2023/10/23 10:34:52;;;;;;;6.78;3.83;;;11.40;99.90;;;;;;4967404;28;20135;-75
2023/10/23 10:37:22;;;;;;;8.43;4.15;;;11.50;99.90;;;;;;4953309;28;20594;-76
2023/10/23 10:39:50;;;;;;;7.30;2.85;;;11.50;99.90;;;;;;4955638;28;20118;-76
2023/10/23 10:42:16;;;;;;;6.80;3.55;;;11.70;99.90;;;;;;4961223;28;20045;-76
2023/10/23 10:44:55;;;;;;;6.57;3.10;;;11.60;99.90;;;;;;4965475;28;20044;-75
2023/10/23 10:47:38;;;;;;;5.47;2.65;;;11.60;99.90;;;;;;4971987;28;20679;-75
2023/10/23 10:50:06;;;;;;;6.65;2.50;;;11.70;99.90;;;;;;4970118;28;20603;-76
2023/10/23 10:52:36;;;;;;;7.95;3.35;;;11.70;99.90;;;;;;4955087;28;20056;-76
2023/10/23 10:55:05;;;;;;;7.07;3.07;;;11.80;99.90;;;;;;4972021;28;20416;-76
2023/10/23 10:57:31;;;;;;;7.93;3.50;;;11.80;99.90;;;;;;4968473;28;20545;-76
2023/10/23 11:00:01;;;;;;;6.47;3.50;;;11.90;99.90;;;;;;4966396;28;20058;-75
2023/10/23 11:02:27;;;;;;;6.82;2.92;;;11.90;99.90;;;;;;4953663;28;20101;-76
2023/10/23 11:04:53;;;;;;;5.55;2.47;;;12.00;99.90;;;;;;4973854;28;20447;-76
2023/10/23 11:07:24;;;;;;;4.97;2.00;;;12.00;99.90;;;;;;4972146;28;20101;-76
2023/10/23 11:09:50;;;;;;;4.50;1.90;;;12.10;99.90;;;;;;4956305;28;20607;-76
2023/10/23 11:12:24;;;;;;;4.63;1.65;;;12.10;99.90;;;;;;4977870;28;20061;-76
2023/10/23 11:14:50;;;;;;;5.10;2.00;;;12.10;99.90;;;;;;4977564;28;20056;-76
2023/10/23 11:17:16;;;;;;;5.88;2.50;;;12.20;99.90;;;;;;4990551;28;20049;-76
2023/10/23 11:19:42;;;;;;;7.28;2.30;;;12.20;99.90;;;;;;4974622;28;20683;-76
2023/10/23 11:22:09;;;;;;;10.45;2.95;;;12.20;99.90;;;;;;4989173;28;20050;-76
2023/10/23 11:24:35;;;;;;;6.35;2.90;;;12.30;99.90;;;;;;4979114;28;20049;-75
2023/10/23 11:27:00;;;;;;;4.40;2.38;;;12.40;99.90;;;;;;4967194;28;20049;-76
2023/10/23 11:29:26;;;;;;;7.90;2.83;;;12.40;99.90;;;;;;4959458;28;20550;-76
2023/10/23 11:31:52;;;;;;;6.60;2.65;;;12.40;99.90;;;;;;4965994;28;20046;-75
2023/10/23 11:34:18;;;;;;;9.30;3.00;;;12.50;99.90;;;;;;4973223;28;20038;-75
2023/10/23 11:36:49;;;;;;;8.23;2.60;;;12.60;99.90;;;;;;4958495;28;20085;-75
2023/10/23 11:39:18;;;;;;;7.13;2.80;;;12.60;99.90;;;;;;4960828;28;20057;-75
2023/10/23 11:41:54;;;;;;;6.60;2.20;;;12.60;99.90;;;;;;4966092;28;20045;-75
2023/10/23 11:44:23;;;;;;;7.32;2.30;;;12.70;99.90;;;;;;4979278;28;20411;-75
2023/10/23 11:46:49;;;;;;;6.53;1.95;;;12.70;99.90;;;;;;4969657;28;20521;-76
2023/10/23 11:49:19;;;;;;;5.13;1.70;;;12.70;99.90;;;;;;4965794;28;20042;-76
2023/10/23 11:51:45;;;;;;;5.65;1.95;;;12.70;99.90;;;;;;4988702;28;20092;-76
2023/10/23 11:54:11;;;;;;;5.07;1.80;;;12.70;99.90;;;;;;4988377;28;20343;-76
2023/10/23 11:56:37;;;;;;;5.97;1.83;;;12.70;99.90;;;;;;4979798;28;20049;-75
2023/10/23 11:59:04;;;;;;;3.55;1.20;;;12.80;99.90;;;;;;4973890;28;20041;-75
2023/10/23 12:01:32;;;;;;;5.65;1.65;;;12.80;99.90;;;;;;4990578;28;20046;-75
2023/10/23 12:03:58;;;;;;;4.40;1.30;;;12.80;99.90;;;;;;4989997;28;20052;-76
2023/10/23 12:06:24;;;;;;;4.57;1.60;;;12.80;99.90;;;;;;4983243;28;20053;-76
2023/10/23 12:08:50;;;;;;;5.40;1.40;;;12.80;99.90;;;;;;4976934;28;20076;-75
2023/10/23 12:11:17;;;;;;;5.20;1.40;;;12.90;99.90;;;;;;4992003;28;20552;-76
2023/10/23 12:13:43;;;;;;;4.97;1.60;;;12.90;99.90;;;;;;4963161;28;20640;-76
2023/10/23 12:16:09;;;;;;;6.15;1.80;;;13.00;99.90;;;;;;4977198;28;20387;-75
2023/10/23 12:18:36;;;;;;;3.88;1.50;;;13.00;99.90;;;;;;4984127;28;20046;-75
2023/10/23 12:21:05;;;;;;;4.38;1.42;;;13.00;99.90;;;;;;4985327;28;20059;-75
2023/10/23 12:23:30;;;;;;;4.13;1.08;;;13.00;99.90;;;;;;4972416;28;20089;-75
2023/10/23 12:25:56;;;;;;;4.97;1.27;;;13.10;99.90;;;;;;4972539;28;20490;-76
2023/10/23 12:28:22;;;;;;;7.90;1.50;;;13.30;99.90;;;;;;4985823;28;20076;-75
2023/10/23 12:30:48;;;;;;;6.40;0.98;;;13.10;99.90;;;;;;4989275;28;20088;-76
2023/10/23 12:33:13;;;;;;;3.78;1.25;;;13.10;99.90;;;;;;4971696;28;20046;-75
2023/10/23 12:35:39;;;;;;;3.47;1.30;;;13.10;99.90;;;;;;4990126;28;20457;-75
2023/10/23 12:38:05;;;;;;;7.90;1.33;;;13.10;99.90;;;;;;4975435;28;20049;-75
2023/10/23 12:40:31;;;;;;;7.43;1.77;;;13.10;99.90;;;;;;4966360;28;20037;-75
2023/10/23 12:42:56;;;;;;;5.45;1.73;;;13.20;99.90;;;;;;4983514;28;20054;-76
2023/10/23 12:45:22;;;;;;;8.93;1.98;;;13.20;99.90;;;;;;4977808;28;20046;-76
2023/10/23 12:47:48;;;;;;;6.72;2.55;;;13.20;99.90;;;;;;4983215;28;20054;-75
2023/10/23 12:50:13;;;;;;;7.10;3.20;;;13.20;99.90;;;;;;4970771;28;20046;-75
2023/10/23 12:52:39;;;;;;;7.47;3.15;;;13.30;99.90;;;;;;4981201;28;20049;-75